createdAt,value
2019-04-03T00:01:21.269Z,16.20
2019-04-03T00:03:52.392Z,18.20
2019-04-03T00:06:22.569Z,17.33
2019-04-03T00:08:52.815Z,18.20
2019-04-03T00:11:23.120Z,19.70
2019-04-03T00:13:53.322Z,16.97
2019-04-03T00:16:23.266Z,19.47
2019-04-03T00:18:53.665Z,21.40
2019-04-03T00:21:23.871Z,20.37
2019-04-03T00:23:53.998Z,17.83
2019-04-03T00:26:24.278Z,19.60
2019-04-03T00:28:54.496Z,20.33
2019-04-03T00:31:24.469Z,19.70
2019-04-03T00:33:54.887Z,18.63
2019-04-03T00:36:25.307Z,15.00
2019-04-03T00:38:55.689Z,17.37
2019-04-03T00:41:25.785Z,16.70
2019-04-03T00:43:56.014Z,15.83
2019-04-03T00:46:26.402Z,15.13
2019-04-03T00:48:56.838Z,16.07
2019-04-03T00:51:27.487Z,16.23
2019-04-03T00:53:58.225Z,15.13
2019-04-03T00:56:28.628Z,14.63
2019-04-03T00:58:58.754Z,15.43
2019-04-03T01:01:29.062Z,16.33
2019-04-03T01:03:59.508Z,20.47
2019-04-03T01:06:30.748Z,17.43
2019-04-03T01:09:01.018Z,18.03
2019-04-03T01:11:31.239Z,17.53
2019-04-03T01:14:02.146Z,16.67
2019-04-03T01:16:34.607Z,17.00
2019-04-03T01:19:06.270Z,16.40
2019-04-03T01:21:37.424Z,15.37
2019-04-03T01:24:08.458Z,14.13
2019-04-03T01:26:41.259Z,15.20
2019-04-03T01:29:12.695Z,14.37
2019-04-03T01:31:44.698Z,12.77
2019-04-03T01:34:17.115Z,11.97
2019-04-03T01:36:48.211Z,13.27
2019-04-03T01:39:20.628Z,14.10
2019-04-03T01:41:51.512Z,12.83
2019-04-03T01:44:24.098Z,15.47
2019-04-03T01:46:54.171Z,15.23
2019-04-03T01:49:24.412Z,11.07
2019-04-03T01:51:54.621Z,10.90
2019-04-03T01:54:24.911Z,15.33
2019-04-03T01:56:55.185Z,12.43
2019-04-03T01:59:25.382Z,12.80
2019-04-03T02:01:55.601Z,15.27
2019-04-03T02:04:25.849Z,15.30
2019-04-03T02:06:56.074Z,13.47
2019-04-03T02:09:27.142Z,11.87
2019-04-03T02:11:57.472Z,13.27
2019-04-03T02:14:27.713Z,11.43
2019-04-03T02:16:58.033Z,11.20
2019-04-03T02:19:28.292Z,13.20
2019-04-03T02:21:59.109Z,17.07
2019-04-03T02:24:30.963Z,14.30
2019-04-03T02:27:03.138Z,13.27
2019-04-03T02:29:33.115Z,12.67
2019-04-03T02:32:03.339Z,12.07
2019-04-03T02:34:35.460Z,12.53
2019-04-03T02:37:05.527Z,13.70
2019-04-03T02:39:35.777Z,10.10
2019-04-03T02:42:08.577Z,11.90
2019-04-03T02:44:38.086Z,13.00
2019-04-03T02:47:08.431Z,10.77
2019-04-03T02:49:41.635Z,11.93
2019-04-03T02:52:10.943Z,14.27
2019-04-03T02:54:43.460Z,12.37
2019-04-03T02:57:16.173Z,14.30
2019-04-03T02:59:45.702Z,10.37
2019-04-03T03:02:15.926Z,12.07
2019-04-03T03:04:46.206Z,12.97
2019-04-03T03:07:16.510Z,10.20
2019-04-03T03:09:48.437Z,13.53
2019-04-03T03:12:19.072Z,10.90
2019-04-03T03:14:49.589Z,11.20
2019-04-03T03:17:22.575Z,12.73
2019-04-03T03:19:53.322Z,11.73
2019-04-03T03:22:24.509Z,11.33
2019-04-03T03:24:56.364Z,13.57
2019-04-03T03:27:27.853Z,11.83
2019-04-03T03:30:00.233Z,13.10
2019-04-03T03:32:35.458Z,12.10
2019-04-03T03:35:12.404Z,12.57
2019-04-03T03:37:36.320Z,12.90
2019-04-03T03:40:07.161Z,10.40
2019-04-03T03:42:37.381Z,11.57
2019-04-03T03:45:08.056Z,11.67
2019-04-03T03:47:38.839Z,10.70
2019-04-03T03:50:10.558Z,9.07
2019-04-03T03:52:41.809Z,11.40
2019-04-03T03:55:12.459Z,10.97
2019-04-03T03:57:43.918Z,10.50
2019-04-03T04:00:14.516Z,8.37
2019-04-03T04:02:45.216Z,9.57
2019-04-03T04:05:19.621Z,10.33
2019-04-03T04:07:47.721Z,9.80
2019-04-03T04:10:17.904Z,9.33
2019-04-03T04:12:49.681Z,8.27
2019-04-03T04:15:20.186Z,9.83
2019-04-03T04:17:51.777Z,9.13
2019-04-03T04:20:22.130Z,9.13
2019-04-03T04:22:52.431Z,9.67
2019-04-03T04:25:23.316Z,9.97
2019-04-03T04:27:53.532Z,9.87
2019-04-03T04:30:23.783Z,9.40
2019-04-03T04:32:53.990Z,12.90
2019-04-03T04:35:24.312Z,13.37
2019-04-03T04:37:55.925Z,13.30
2019-04-03T04:40:26.511Z,15.77
2019-04-03T04:42:56.706Z,15.07
2019-04-03T04:45:26.900Z,18.30
2019-04-03T04:47:58.596Z,17.77
2019-04-03T04:50:28.869Z,10.70
2019-04-03T04:52:59.460Z,10.90
2019-04-03T04:55:31.307Z,11.50
2019-04-03T04:58:01.540Z,11.07
2019-04-03T05:00:31.756Z,13.03
2019-04-03T05:03:02.205Z,16.37
2019-04-03T05:05:33.465Z,15.67
2019-04-03T05:08:03.788Z,23.83
2019-04-03T05:10:38.430Z,17.20
2019-04-03T05:13:10.038Z,14.40
2019-04-03T05:15:40.285Z,13.30
2019-04-03T05:18:10.714Z,15.17
2019-04-03T05:20:40.891Z,16.80
2019-04-03T05:23:11.169Z,12.50
2019-04-03T05:25:41.844Z,12.20
2019-04-03T05:28:12.114Z,13.00
2019-04-03T05:30:42.506Z,11.33
2019-04-03T05:33:12.871Z,13.83
2019-04-03T05:35:45.616Z,14.87
2019-04-03T05:38:14.969Z,12.67
2019-04-03T05:40:45.375Z,14.13
2019-04-03T05:43:15.558Z,15.43
2019-04-03T05:45:45.872Z,16.03
2019-04-03T05:48:17.704Z,13.80
2019-04-03T05:50:48.104Z,18.53
2019-04-03T05:53:18.492Z,15.30
2019-04-03T05:55:48.745Z,11.60
2019-04-03T05:58:18.980Z,15.13
2019-04-03T06:00:49.215Z,13.20
2019-04-03T06:03:19.509Z,23.13
2019-04-03T06:05:49.751Z,11.97
2019-04-03T06:08:20.686Z,12.57
2019-04-03T06:10:50.989Z,13.67
2019-04-03T06:13:21.146Z,13.43
2019-04-03T06:15:52.990Z,12.77
2019-04-03T06:18:26.525Z,13.60
2019-04-03T06:20:57.606Z,12.80
2019-04-03T06:23:27.905Z,12.93
2019-04-03T06:26:00.726Z,16.17
2019-04-03T06:28:31.339Z,15.30
2019-04-03T06:31:02.553Z,13.30
2019-04-03T06:33:35.042Z,14.07
2019-04-03T06:36:04.680Z,13.33
2019-04-03T06:38:34.976Z,14.87
2019-04-03T06:41:07.796Z,14.70
2019-04-03T06:43:37.152Z,15.80
2019-04-03T06:46:07.413Z,15.37
2019-04-03T06:48:37.632Z,18.63
2019-04-03T06:51:08.248Z,16.60
2019-04-03T06:53:38.443Z,15.00
2019-04-03T06:56:09.055Z,13.70
2019-04-03T06:58:40.162Z,12.63
2019-04-03T07:01:10.600Z,10.40
2019-04-03T07:03:41.191Z,8.50
2019-04-03T07:06:13.105Z,8.43
2019-04-03T07:08:43.751Z,5.60
2019-04-03T07:11:23.238Z,10.30
2019-04-03T07:13:46.013Z,8.30
2019-04-03T07:16:16.547Z,7.00
2019-04-03T07:18:46.729Z,9.10
2019-04-03T07:21:16.992Z,8.17
2019-04-03T07:23:47.125Z,9.00
2019-04-03T07:26:17.385Z,8.00
2019-04-03T07:28:47.638Z,8.23
2019-04-03T07:31:17.930Z,6.67
2019-04-03T07:33:48.380Z,7.30
2019-04-03T07:36:19.007Z,7.33
2019-04-03T07:38:49.151Z,8.07
2019-04-03T07:41:22.157Z,13.93
2019-04-03T07:43:51.347Z,19.43
2019-04-03T07:46:21.456Z,12.40
2019-04-03T07:48:51.628Z,10.17
2019-04-03T07:51:21.926Z,13.40
2019-04-03T07:53:52.179Z,14.07
2019-04-03T07:56:25.556Z,11.60
2019-04-03T07:58:54.273Z,13.17
2019-04-03T08:01:24.499Z,12.73
2019-04-03T08:03:54.925Z,14.20
2019-04-03T08:06:25.527Z,16.20
2019-04-03T08:09:06.616Z,15.70
2019-04-03T08:11:27.628Z,21.53
2019-04-03T08:13:57.901Z,15.40
2019-04-03T08:16:28.244Z,18.50
2019-04-03T08:18:59.537Z,19.07
2019-04-03T08:21:30.561Z,14.90
2019-04-03T08:24:01.545Z,15.43
2019-04-03T08:26:31.925Z,15.70
2019-04-03T08:29:02.298Z,19.67
2019-04-03T08:31:32.959Z,19.23
2019-04-03T08:34:14.725Z,17.30
2019-04-03T08:36:35.283Z,20.80
2019-04-03T08:39:07.474Z,21.20
2019-04-03T08:41:37.959Z,20.30
2019-04-03T08:44:09.144Z,22.83
2019-04-03T08:46:43.043Z,22.67
2019-04-03T08:49:11.754Z,21.83
2019-04-03T08:51:42.119Z,18.40
2019-04-03T08:54:12.523Z,19.73
2019-04-03T08:56:43.199Z,19.10
2019-04-03T08:59:13.887Z,20.60
2019-04-03T09:01:44.241Z,20.70
2019-04-03T09:04:14.851Z,19.27
2019-04-03T09:06:46.583Z,19.60
2019-04-03T09:09:16.895Z,21.53
2019-04-03T09:11:47.034Z,20.77
2019-04-03T09:14:19.431Z,21.37
2019-04-03T09:16:49.349Z,20.93
2019-04-03T09:19:20.660Z,20.53
2019-04-03T09:21:51.807Z,20.40
2019-04-03T09:24:22.064Z,20.63
2019-04-03T09:26:52.277Z,20.73
2019-04-03T09:29:22.551Z,18.87
2019-04-03T09:31:55.875Z,19.03
2019-04-03T09:34:25.070Z,19.40
2019-04-03T09:36:55.317Z,20.07
2019-04-03T09:39:25.542Z,19.47
2019-04-03T09:41:55.768Z,22.00
2019-04-03T09:44:25.997Z,21.97
2019-04-03T09:46:56.608Z,20.60
2019-04-03T09:49:26.807Z,21.53
2019-04-03T09:51:57.507Z,22.47
2019-04-03T09:54:28.640Z,21.60
2019-04-03T09:57:04.455Z,21.53
2019-04-03T09:59:30.902Z,22.47
2019-04-03T10:02:01.165Z,20.63
2019-04-03T10:04:31.405Z,20.47
2019-04-03T10:07:02.601Z,20.87
2019-04-03T10:09:33.109Z,18.37
2019-04-03T10:12:03.336Z,17.37
2019-04-03T10:14:33.765Z,18.13
2019-04-03T10:17:06.248Z,18.43
2019-04-03T10:19:35.875Z,18.70
2019-04-03T10:22:07.528Z,20.90
2019-04-03T10:24:37.811Z,19.47
2019-04-03T10:27:10.721Z,17.30
2019-04-03T10:29:40.045Z,17.50
2019-04-03T10:32:10.392Z,20.30
2019-04-03T10:34:40.640Z,20.13
2019-04-03T10:37:12.170Z,21.67
2019-04-03T10:39:44.452Z,21.00
2019-04-03T10:42:14.859Z,21.60
2019-04-03T10:44:45.431Z,23.60
2019-04-03T10:47:16.051Z,21.80
2019-04-03T10:49:46.342Z,23.30
2019-04-03T10:52:16.591Z,22.70
2019-04-03T10:54:47.144Z,22.50
2019-04-03T10:57:17.485Z,25.20
2019-04-03T10:59:47.955Z,26.13
2019-04-03T11:02:19.704Z,25.93
2019-04-03T11:04:50.043Z,28.63
2019-04-03T11:07:20.263Z,30.60
2019-04-03T11:09:50.450Z,29.07
2019-04-03T11:12:20.780Z,29.20
2019-04-03T11:14:51.519Z,26.80
2019-04-03T11:17:23.769Z,26.73
2019-04-03T11:19:53.913Z,27.27
2019-04-03T11:22:24.451Z,27.47
2019-04-03T11:24:55.610Z,27.07
2019-04-03T11:27:40.848Z,26.43
2019-04-03T11:29:58.258Z,24.77
2019-04-03T11:32:28.604Z,26.60
2019-04-03T11:34:58.871Z,26.90
2019-04-03T11:37:31.917Z,27.50
2019-04-03T11:40:04.729Z,28.13
2019-04-03T11:42:33.279Z,27.30
2019-04-03T11:45:04.775Z,27.90
2019-04-03T11:47:35.126Z,25.43
2019-04-03T11:50:06.073Z,25.47
2019-04-03T11:52:36.223Z,25.03
2019-04-03T11:55:09.888Z,23.83
2019-04-03T11:57:39.087Z,25.83
2019-04-03T12:00:14.855Z,24.93
2019-04-03T12:02:45.153Z,24.53
2019-04-03T12:05:20.725Z,24.63
2019-04-03T12:07:49.500Z,25.10
2019-04-03T12:10:19.661Z,26.17
2019-04-03T12:12:50.215Z,24.67
2019-04-03T12:15:21.768Z,25.07
2019-04-03T12:17:52.636Z,24.00
2019-04-03T12:20:22.885Z,25.57
2019-04-03T12:22:54.550Z,23.50
2019-04-03T12:25:25.324Z,26.07
2019-04-03T12:27:56.774Z,23.93
2019-04-03T12:30:28.009Z,23.40
2019-04-03T12:32:58.893Z,22.43
2019-04-03T12:35:29.194Z,20.97
2019-04-03T12:37:59.539Z,31.43
2019-04-03T12:40:32.286Z,128.37
2019-04-03T12:43:02.117Z,39.03
2019-04-03T12:45:32.619Z,53.90
2019-04-03T12:48:03.188Z,26.97
2019-04-03T12:50:33.765Z,23.73
2019-04-03T12:53:03.946Z,28.53
2019-04-03T12:55:34.554Z,20.53
2019-04-03T12:58:05.755Z,22.73
2019-04-03T13:00:36.356Z,21.77
2019-04-03T13:03:08.035Z,21.80
2019-04-03T13:05:41.120Z,24.20
2019-04-03T13:08:12.098Z,26.40
2019-04-03T13:10:46.839Z,22.43
2019-04-03T13:13:14.259Z,20.73
2019-04-03T13:15:44.549Z,21.93
2019-04-03T13:18:15.523Z,22.30
2019-04-03T13:20:45.938Z,23.33
2019-04-03T13:23:16.267Z,21.77
2019-04-03T13:25:46.442Z,21.90
2019-04-03T13:28:25.389Z,21.87
2019-04-03T13:30:56.711Z,20.20
2019-04-03T13:33:26.983Z,24.20
2019-04-03T13:35:57.361Z,23.93
2019-04-03T13:38:29.268Z,20.10
2019-04-03T13:40:59.646Z,17.50
2019-04-03T13:43:30.395Z,21.03
2019-04-03T13:46:03.548Z,15.17
2019-04-03T13:48:32.929Z,12.37
2019-04-03T13:51:03.285Z,8.00
2019-04-03T13:53:33.455Z,9.90
2019-04-03T13:56:06.032Z,11.27
2019-04-03T13:58:35.593Z,9.77
2019-04-03T14:01:09.199Z,11.40
2019-04-03T14:03:37.790Z,10.40
2019-04-03T14:06:11.870Z,9.57
2019-04-03T14:08:45.245Z,11.07
2019-04-03T14:11:17.701Z,10.13
2019-04-03T14:13:52.880Z,12.00
2019-04-03T14:16:23.581Z,12.17
2019-04-03T14:19:01.539Z,12.50
2019-04-03T14:21:34.902Z,11.20
2019-04-03T14:24:03.674Z,11.20
2019-04-03T14:26:33.901Z,11.50
2019-04-03T14:29:06.475Z,11.00
2019-04-03T14:31:38.099Z,8.90
2019-04-03T14:34:09.021Z,8.37
2019-04-03T14:36:39.290Z,8.57
2019-04-03T14:39:19.987Z,10.57
2019-04-03T14:41:53.309Z,9.00
2019-04-03T14:44:22.282Z,7.17
2019-04-03T14:46:52.595Z,9.07
2019-04-03T14:49:23.091Z,7.47
2019-04-03T14:51:53.438Z,7.93
2019-04-03T14:54:24.580Z,7.73
2019-04-03T14:57:07.723Z,7.83
2019-04-03T14:59:35.202Z,7.90
2019-04-03T15:02:04.754Z,8.70
2019-04-03T15:04:37.114Z,8.77
2019-04-03T15:07:09.871Z,9.63
2019-04-03T15:09:39.937Z,16.13
2019-04-03T15:12:12.526Z,11.33
2019-04-03T15:14:43.018Z,38.70
2019-04-03T15:17:15.150Z,19.40
2019-04-03T15:19:46.328Z,21.17
2019-04-03T15:22:16.884Z,22.10
2019-04-03T15:24:47.379Z,14.10
2019-04-03T15:27:18.061Z,12.13
2019-04-03T15:29:48.591Z,10.30
2019-04-03T15:32:20.930Z,11.07
2019-04-03T15:34:51.267Z,14.63
2019-04-03T15:37:21.867Z,11.17
2019-04-03T15:39:56.473Z,11.50
2019-04-03T15:42:24.336Z,12.53
2019-04-03T15:44:57.160Z,12.10
2019-04-03T15:47:35.679Z,11.83
2019-04-03T15:49:59.960Z,11.70
2019-04-03T15:52:32.878Z,13.80
2019-04-03T15:55:04.093Z,13.57
2019-04-03T15:57:36.087Z,15.53
2019-04-03T16:00:09.968Z,13.33
2019-04-03T16:02:40.502Z,14.47
2019-04-03T16:05:10.919Z,14.03
2019-04-03T16:07:42.079Z,15.93
2019-04-03T16:10:14.117Z,15.93
2019-04-03T16:12:44.460Z,17.10
2019-04-03T16:15:15.460Z,15.37
2019-04-03T16:17:46.428Z,13.13
2019-04-03T16:20:18.324Z,14.80
2019-04-03T16:22:48.568Z,15.23
2019-04-03T16:25:18.816Z,13.70
2019-04-03T16:27:48.960Z,14.60
2019-04-03T16:30:20.798Z,14.70
2019-04-03T16:32:52.044Z,15.07
2019-04-03T16:35:22.812Z,15.20
2019-04-03T16:37:55.556Z,15.87
2019-04-03T16:40:25.246Z,16.10
2019-04-03T16:42:55.533Z,161.83
2019-04-03T16:45:25.873Z,113.43
2019-04-03T16:47:57.916Z,86.37
2019-04-03T16:50:28.715Z,69.60
2019-04-03T16:52:58.935Z,80.50
2019-04-03T16:55:29.193Z,77.30
2019-04-03T16:57:59.719Z,45.40
2019-04-03T17:00:31.387Z,51.77
2019-04-03T17:03:02.169Z,94.03
2019-04-03T17:05:32.449Z,66.63
2019-04-03T17:08:02.626Z,28.20
2019-04-03T17:10:32.893Z,44.67
2019-04-03T17:13:03.065Z,47.20
2019-04-03T17:15:35.064Z,50.00
2019-04-03T17:18:05.312Z,52.50
2019-04-03T17:20:35.879Z,61.97
2019-04-03T17:23:06.509Z,42.77
2019-04-03T17:25:45.802Z,49.60
2019-04-03T17:28:10.197Z,92.57
2019-04-03T17:30:41.388Z,87.63
2019-04-03T17:33:12.264Z,46.50
2019-04-03T17:35:45.924Z,93.70
2019-04-03T17:38:15.496Z,76.13
2019-04-03T17:40:48.826Z,77.03
2019-04-03T17:43:19.350Z,76.30
2019-04-03T17:45:49.506Z,37.87
2019-04-03T17:48:20.006Z,40.13
2019-04-03T17:50:50.202Z,43.80
2019-04-03T17:53:20.884Z,44.07
2019-04-03T17:55:56.157Z,84.20
2019-04-03T17:58:33.220Z,64.87
2019-04-03T18:01:02.079Z,44.83
2019-04-03T18:03:33.315Z,55.30
2019-04-03T18:06:03.507Z,44.17
2019-04-03T18:08:33.776Z,71.43
2019-04-03T18:11:04.256Z,32.77
2019-04-03T18:13:34.728Z,40.37
2019-04-03T18:16:05.199Z,31.83
2019-04-03T18:18:37.528Z,26.50
2019-04-03T18:21:07.406Z,25.83
2019-04-03T18:23:37.718Z,28.90
2019-04-03T18:26:07.662Z,25.47
2019-04-03T18:28:37.841Z,24.53
2019-04-03T18:31:08.056Z,22.93
2019-04-03T18:33:38.250Z,21.37
2019-04-03T18:36:10.254Z,20.27
2019-04-03T18:38:41.659Z,19.67
2019-04-03T18:41:11.872Z,20.83
2019-04-03T18:43:42.192Z,21.60
2019-04-03T18:46:12.575Z,20.80
2019-04-03T18:48:52.759Z,22.43
2019-04-03T18:51:14.757Z,22.80
2019-04-03T18:53:45.174Z,19.27
2019-04-03T18:56:16.058Z,18.47
2019-04-03T18:58:46.275Z,14.97
2019-04-03T19:01:17.158Z,16.77
2019-04-03T19:03:47.526Z,10.63
2019-04-03T19:06:17.823Z,10.67
2019-04-03T19:08:49.709Z,7.30
2019-04-03T19:11:19.848Z,6.77
2019-04-03T19:13:50.073Z,8.97
2019-04-03T19:16:29.404Z,7.83
2019-04-03T19:18:52.215Z,7.37
2019-04-03T19:21:24.833Z,7.53
2019-04-03T19:23:54.460Z,6.63
2019-04-03T19:26:24.766Z,9.93
2019-04-03T19:28:54.973Z,5.40
2019-04-03T19:31:25.473Z,4.23
2019-04-03T19:33:55.756Z,4.73
2019-04-03T19:36:26.051Z,8.00
2019-04-03T19:38:56.430Z,6.50
2019-04-03T19:41:27.721Z,3.60
2019-04-03T19:44:00.570Z,4.77
2019-04-03T19:46:29.846Z,3.67
2019-04-03T19:49:00.079Z,4.03
2019-04-03T19:51:30.331Z,7.13
2019-04-03T19:54:00.623Z,4.10
2019-04-03T19:56:30.772Z,3.50
2019-04-03T19:59:00.939Z,4.70
2019-04-03T20:01:31.193Z,5.57
2019-04-03T20:04:01.387Z,3.40
2019-04-03T20:06:31.601Z,6.50
2019-04-03T20:09:01.830Z,3.63
2019-04-03T20:11:32.094Z,5.20
2019-04-03T20:14:02.289Z,5.57
2019-04-03T20:16:32.555Z,7.70
2019-04-03T20:19:02.767Z,9.93
2019-04-03T20:21:34.030Z,13.47
2019-04-03T20:24:04.754Z,17.77
2019-04-03T20:26:35.137Z,18.53
2019-04-03T20:29:05.334Z,22.53
2019-04-03T20:31:35.703Z,24.77
2019-04-03T20:34:06.519Z,27.73
2019-04-03T20:36:36.628Z,30.20
2019-04-03T20:39:09.199Z,34.70
2019-04-03T20:41:39.421Z,35.53
2019-04-03T20:44:09.964Z,35.77
2019-04-03T20:46:40.290Z,35.47
2019-04-03T20:49:10.608Z,36.10
2019-04-03T20:51:40.830Z,38.37
2019-04-03T20:54:11.876Z,38.77
2019-04-03T20:56:42.241Z,39.90
2019-04-03T20:59:12.397Z,41.17
2019-04-03T21:01:42.641Z,38.43
2019-04-03T21:04:12.995Z,41.13
2019-04-03T21:06:44.710Z,42.87
2019-04-03T21:09:15.042Z,41.53
2019-04-03T21:11:45.312Z,43.60
2019-04-03T21:14:15.589Z,40.17
2019-04-03T21:16:47.682Z,42.33
2019-04-03T21:19:17.700Z,41.70
2019-04-03T21:21:47.830Z,41.90
2019-04-03T21:24:18.109Z,42.47
2019-04-03T21:26:48.316Z,44.17
2019-04-03T21:29:18.603Z,45.20
2019-04-03T21:31:48.871Z,46.23
2019-04-03T21:34:18.942Z,41.73
2019-04-03T21:36:48.999Z,45.50
2019-04-03T21:39:19.315Z,44.63
2019-04-03T21:41:49.542Z,47.67
2019-04-03T21:44:19.761Z,42.63
2019-04-03T21:46:51.070Z,44.00
2019-04-03T21:49:21.214Z,47.60
2019-04-03T21:51:51.829Z,44.27
2019-04-03T21:54:22.707Z,48.93
2019-04-03T21:56:52.989Z,48.13
2019-04-03T21:59:23.252Z,46.93
2019-04-03T22:01:53.573Z,45.73
2019-04-03T22:04:23.797Z,41.40
2019-04-03T22:06:54.002Z,41.77
2019-04-03T22:09:24.333Z,39.43
2019-04-03T22:11:54.596Z,38.00
2019-04-03T22:14:24.782Z,36.43
2019-04-03T22:16:55.105Z,35.27
2019-04-03T22:19:27.384Z,35.80
2019-04-03T22:21:57.263Z,33.27
2019-04-03T22:24:27.470Z,32.63
2019-04-03T22:26:57.678Z,33.40
2019-04-03T22:29:27.901Z,31.17
2019-04-03T22:31:58.133Z,32.53
2019-04-03T22:34:29.900Z,31.20
2019-04-03T22:37:00.197Z,33.13
2019-04-03T22:39:30.481Z,33.80
2019-04-03T22:42:00.703Z,32.57
2019-04-03T22:44:30.819Z,34.80
2019-04-03T22:47:01.080Z,33.57
2019-04-03T22:49:33.974Z,35.83
2019-04-03T22:52:03.962Z,36.50
2019-04-03T22:54:34.224Z,39.00
2019-04-03T22:57:04.421Z,39.77
2019-04-03T22:59:34.609Z,40.40
2019-04-03T23:02:04.793Z,39.87
2019-04-03T23:04:34.921Z,43.37
2019-04-03T23:07:05.150Z,43.47
2019-04-03T23:09:35.484Z,43.17
2019-04-03T23:12:05.762Z,42.70
2019-04-03T23:14:38.200Z,43.20
2019-04-03T23:17:07.835Z,40.63
2019-04-03T23:19:38.042Z,44.60
2019-04-03T23:22:08.229Z,44.33
2019-04-03T23:24:38.434Z,43.60
2019-04-03T23:27:08.721Z,43.63
2019-04-03T23:29:38.924Z,43.07
2019-04-03T23:32:09.154Z,43.73
2019-04-03T23:34:39.309Z,44.80
2019-04-03T23:37:09.502Z,46.73
2019-04-03T23:39:39.658Z,45.57
2019-04-03T23:42:09.793Z,46.47
2019-04-03T23:44:41.854Z,48.77
2019-04-03T23:47:11.865Z,50.23
2019-04-03T23:49:41.993Z,51.97
2019-04-03T23:52:12.965Z,48.43
2019-04-03T23:54:43.171Z,53.63
2019-04-03T23:57:13.301Z,50.17
2019-04-03T23:59:44.368Z,50.47
